createdAt,value
2023-02-04T00:00:49.104Z,2.3
2023-02-04T00:01:57.406Z,2.3
2023-02-04T00:03:05.770Z,2.3
2023-02-04T00:04:14.250Z,1.6
2023-02-04T00:05:22.621Z,1.6
2023-02-04T00:06:30.958Z,1.6
2023-02-04T00:07:41.253Z,1.9
2023-02-04T00:08:47.812Z,1.9
2023-02-04T00:09:56.163Z,1.9
2023-02-04T00:11:04.688Z,2
2023-02-04T00:12:13.014Z,2
2023-02-04T00:13:21.328Z,2
2023-02-04T00:14:29.855Z,1.8
2023-02-04T00:15:38.182Z,1.8
2023-02-04T00:16:46.540Z,1.8
2023-02-04T00:17:55.037Z,1.9
2023-02-04T00:19:03.380Z,1.9
2023-02-04T00:20:11.723Z,1.9
2023-02-04T00:21:20.261Z,1.6
2023-02-04T00:22:28.596Z,1.6
2023-02-04T00:23:36.927Z,1.6
2023-02-04T00:24:45.457Z,1.9
2023-02-04T00:25:53.788Z,1.9
2023-02-04T00:27:02.100Z,1.9
2023-02-04T00:28:10.661Z,1.9
2023-02-04T00:29:18.968Z,1.9
2023-02-04T00:30:27.292Z,1.9
2023-02-04T00:31:35.954Z,1.9
2023-02-04T00:32:44.176Z,1.9
2023-02-04T00:33:52.469Z,1.9
2023-02-04T00:35:01.016Z,1.5
2023-02-04T00:36:09.334Z,1.5
2023-02-04T00:37:17.664Z,1.5
2023-02-04T00:38:26.194Z,2.2
2023-02-04T00:39:34.533Z,2.2
2023-02-04T00:40:42.862Z,2.2
2023-02-04T00:41:51.394Z,1.9
2023-02-04T00:42:59.731Z,1.9
2023-02-04T00:44:08.036Z,1.9
2023-02-04T00:45:16.588Z,1.8
2023-02-04T00:46:24.913Z,1.8
2023-02-04T00:47:33.253Z,1.8
2023-02-04T00:48:41.783Z,1.8
2023-02-04T00:49:50.088Z,1.8
2023-02-04T00:50:58.427Z,1.8
2023-02-04T00:52:06.959Z,2.1
2023-02-04T00:53:15.279Z,2.1
2023-02-04T00:54:23.627Z,2.1
2023-02-04T00:55:32.179Z,1.9
2023-02-04T00:56:40.509Z,1.9
2023-02-04T00:57:48.850Z,1.9
2023-02-04T00:58:57.373Z,1.8
2023-02-04T01:00:05.702Z,1.8
2023-02-04T01:01:14.062Z,1.8
2023-02-04T01:02:22.541Z,1.9
2023-02-04T01:03:30.855Z,1.9
2023-02-04T01:04:39.207Z,1.9
2023-02-04T01:05:47.712Z,2
2023-02-04T01:06:56.043Z,2
2023-02-04T01:08:04.383Z,2
2023-02-04T01:09:12.918Z,2
2023-02-04T01:10:21.239Z,2
2023-02-04T01:11:29.568Z,2
2023-02-04T01:12:38.104Z,2.1
2023-02-04T01:13:46.429Z,2.1
2023-02-04T01:14:54.746Z,2.1
2023-02-04T01:16:03.332Z,2.2
2023-02-04T01:17:11.588Z,2.2
2023-02-04T01:18:19.911Z,2.2
2023-02-04T01:19:28.440Z,2
2023-02-04T01:20:36.799Z,2
2023-02-04T01:21:45.096Z,2
2023-02-04T01:22:53.621Z,2.2
2023-02-04T01:24:01.936Z,2.2
2023-02-04T01:25:10.294Z,2.2
2023-02-04T01:26:18.851Z,1.9
2023-02-04T01:27:27.193Z,1.9
2023-02-04T01:28:35.533Z,1.9
2023-02-04T01:29:44.077Z,2
2023-02-04T01:30:52.428Z,2
2023-02-04T01:32:00.833Z,2
2023-02-04T01:33:09.261Z,1.6
2023-02-04T01:34:17.569Z,1.6
2023-02-04T01:35:25.909Z,1.6
2023-02-04T01:36:34.468Z,1.9
2023-02-04T01:37:42.813Z,1.9
2023-02-04T01:38:51.150Z,1.9
2023-02-04T01:39:59.692Z,2.1
2023-02-04T01:41:08.019Z,2.1
2023-02-04T01:42:16.341Z,2.1
2023-02-04T01:43:24.883Z,2.3
2023-02-04T01:44:33.196Z,2.3
2023-02-04T01:45:41.566Z,2.3
2023-02-04T01:46:50.068Z,2.2
2023-02-04T01:47:58.402Z,2.2
2023-02-04T01:49:06.772Z,2.2
2023-02-04T01:50:15.285Z,2.3
2023-02-04T01:51:23.608Z,2.3
2023-02-04T01:52:31.951Z,2.3
2023-02-04T01:53:40.449Z,2.3
2023-02-04T01:54:48.777Z,2.3
2023-02-04T01:55:57.110Z,2.3
2023-02-04T01:57:05.654Z,2.1
2023-02-04T01:58:14.008Z,2.1
2023-02-04T01:59:22.339Z,2.1
2023-02-04T02:00:31.216Z,2.8
2023-02-04T02:01:39.201Z,2.8
2023-02-04T02:02:47.538Z,2.8
2023-02-04T02:03:56.059Z,1.9
2023-02-04T02:05:04.400Z,1.9
2023-02-04T02:06:12.715Z,1.9
2023-02-04T02:07:21.252Z,1.6
2023-02-04T02:08:29.597Z,1.6
2023-02-04T02:09:37.904Z,1.6
2023-02-04T02:10:46.435Z,1.8
2023-02-04T02:11:54.758Z,1.8
2023-02-04T02:13:03.083Z,1.8
2023-02-04T02:14:11.622Z,1.8
2023-02-04T02:15:19.992Z,1.8
2023-02-04T02:16:28.343Z,1.8
2023-02-04T02:17:36.847Z,2.2
2023-02-04T02:18:45.167Z,2.2
2023-02-04T02:19:53.519Z,2.2
2023-02-04T02:21:02.042Z,2.2
2023-02-04T02:22:10.365Z,2.2
2023-02-04T02:23:18.678Z,2.2
2023-02-04T02:24:27.249Z,2.4
2023-02-04T02:25:35.547Z,2.4
2023-02-04T02:26:43.871Z,2.4
2023-02-04T02:27:52.414Z,1.9
2023-02-04T02:29:00.739Z,1.9
2023-02-04T02:30:09.054Z,1.9
2023-02-04T02:31:17.729Z,2.2
2023-02-04T02:32:25.963Z,2.2
2023-02-04T02:33:34.288Z,2.2
2023-02-04T02:34:42.819Z,2
2023-02-04T02:35:51.161Z,2
2023-02-04T02:36:59.474Z,2
2023-02-04T02:38:07.986Z,0.5
2023-02-04T02:39:16.314Z,0.5
2023-02-04T02:40:24.663Z,0.5
2023-02-04T02:41:33.180Z,0.1
2023-02-04T02:42:41.501Z,0.1
2023-02-04T02:43:49.825Z,0.1
2023-02-04T02:44:58.350Z,0.2
2023-02-04T02:46:06.785Z,0.2
2023-02-04T02:47:15.036Z,0.2
2023-02-04T02:48:23.568Z,0.1
2023-02-04T02:49:31.895Z,0.1
2023-02-04T02:50:40.240Z,0.1
2023-02-04T02:51:48.793Z,0.1
2023-02-04T02:52:57.115Z,0.1
2023-02-04T02:54:05.432Z,0.1
2023-02-04T02:55:13.987Z,0.4
2023-02-04T02:56:22.350Z,0.4
2023-02-04T02:57:30.661Z,0.4
2023-02-04T02:58:39.188Z,0.5
2023-02-04T02:59:47.514Z,0.5
2023-02-04T03:00:55.856Z,0.5
2023-02-04T03:02:04.364Z,0.7
2023-02-04T03:03:12.706Z,0.7
2023-02-04T03:04:21.020Z,0.7
2023-02-04T03:05:29.550Z,0.8
2023-02-04T03:06:37.880Z,0.8
2023-02-04T03:07:46.222Z,0.8
2023-02-04T03:08:54.746Z,1.3
2023-02-04T03:10:03.076Z,1.3
2023-02-04T03:11:11.419Z,1.3
2023-02-04T03:12:19.986Z,1.6
2023-02-04T03:13:28.300Z,1.6
2023-02-04T03:14:36.630Z,1.6
2023-02-04T03:15:45.206Z,1.8
2023-02-04T03:16:53.485Z,1.8
2023-02-04T03:18:01.814Z,1.8
2023-02-04T03:19:10.382Z,2.1
2023-02-04T03:20:18.918Z,2.1
2023-02-04T03:21:27.271Z,2.1
2023-02-04T03:22:35.800Z,2.3
2023-02-04T03:23:44.129Z,2.3
2023-02-04T03:24:52.456Z,2.3
2023-02-04T03:26:01.008Z,2.2
2023-02-04T03:27:09.331Z,2.2
2023-02-04T03:28:17.708Z,2.2
2023-02-04T03:29:26.199Z,2.6
2023-02-04T03:30:34.538Z,2.6
2023-02-04T03:31:43.035Z,2.6
2023-02-04T03:32:51.425Z,2.3
2023-02-04T03:33:59.741Z,2.3
2023-02-04T03:35:08.073Z,2.3
2023-02-04T03:36:16.591Z,2.7
2023-02-04T03:37:24.933Z,2.7
2023-02-04T03:38:33.273Z,2.7
2023-02-04T03:39:41.795Z,2.7
2023-02-04T03:40:50.113Z,2.7
2023-02-04T03:41:58.442Z,2.7
2023-02-04T03:43:06.974Z,2.6
2023-02-04T03:44:15.342Z,2.6
2023-02-04T03:45:23.632Z,2.6
2023-02-04T03:46:32.248Z,2.6
2023-02-04T03:47:40.497Z,2.6
2023-02-04T03:48:48.824Z,2.6
2023-02-04T03:49:57.356Z,2.7
2023-02-04T03:51:05.663Z,2.7
2023-02-04T03:52:13.997Z,2.7
2023-02-04T03:53:22.521Z,2.8
2023-02-04T03:54:30.839Z,2.8
2023-02-04T03:55:39.170Z,2.8
2023-02-04T03:56:47.707Z,2.9
2023-02-04T03:57:56.042Z,2.9
2023-02-04T03:59:04.357Z,2.9
2023-02-04T04:00:12.916Z,2.7
2023-02-04T04:01:21.218Z,2.7
2023-02-04T04:02:29.714Z,2.7
2023-02-04T04:03:38.204Z,2.9
2023-02-04T04:04:46.525Z,2.9
2023-02-04T04:05:54.829Z,2.9
2023-02-04T04:07:03.382Z,2.7
2023-02-04T04:08:11.709Z,2.7
2023-02-04T04:09:20.029Z,2.7
2023-02-04T04:10:28.552Z,3.1
2023-02-04T04:11:36.890Z,3.1
2023-02-04T04:12:45.226Z,3.1
2023-02-04T04:13:53.757Z,2.5
2023-02-04T04:15:02.079Z,2.5
2023-02-04T04:16:10.523Z,2.5
2023-02-04T04:17:18.975Z,2.6
2023-02-04T04:18:27.305Z,2.6
2023-02-04T04:19:35.616Z,2.6
2023-02-04T04:20:44.156Z,2.7
2023-02-04T04:21:52.492Z,2.7
2023-02-04T04:23:00.800Z,2.7
2023-02-04T04:24:09.331Z,2.6
2023-02-04T04:25:17.653Z,2.6
2023-02-04T04:26:25.988Z,2.6
2023-02-04T04:27:34.533Z,2.3
2023-02-04T04:28:42.842Z,2.3
2023-02-04T04:29:51.154Z,2.3
2023-02-04T04:30:59.796Z,2.4
2023-02-04T04:32:08.074Z,2.4
2023-02-04T04:33:16.343Z,2.4
2023-02-04T04:34:24.883Z,2.1
2023-02-04T04:35:33.199Z,2.1
2023-02-04T04:36:41.515Z,2.1
2023-02-04T04:37:50.045Z,2.4
2023-02-04T04:38:58.377Z,2.4
2023-02-04T04:40:06.698Z,2.4
2023-02-04T04:41:15.234Z,2.3
2023-02-04T04:42:23.566Z,2.3
2023-02-04T04:43:31.887Z,2.3
2023-02-04T04:44:40.446Z,2.1
2023-02-04T04:45:48.807Z,2.1
2023-02-04T04:46:57.190Z,2.1
2023-02-04T04:48:05.723Z,2.3
2023-02-04T04:49:14.017Z,2.3
2023-02-04T04:50:22.344Z,2.3
2023-02-04T04:51:30.878Z,2.4
2023-02-04T04:52:39.238Z,2.4
2023-02-04T04:53:47.566Z,2.4
2023-02-04T04:54:56.114Z,2
2023-02-04T04:56:04.441Z,2
2023-02-04T04:57:12.760Z,2
2023-02-04T04:58:21.311Z,2.3
2023-02-04T04:59:29.649Z,2.3
2023-02-04T05:00:38.004Z,2.3
2023-02-04T05:01:46.539Z,2.3
2023-02-04T05:02:54.871Z,2.3
2023-02-04T05:04:03.218Z,2.3
2023-02-04T05:05:11.766Z,2.2
2023-02-04T05:06:20.083Z,2.2
2023-02-04T05:07:28.430Z,2.2
2023-02-04T05:08:36.995Z,2
2023-02-04T05:09:45.331Z,2
2023-02-04T05:10:53.675Z,2
2023-02-04T05:12:02.209Z,3
2023-02-04T05:13:10.553Z,3
2023-02-04T05:14:18.872Z,3
2023-02-04T05:15:27.413Z,2
2023-02-04T05:16:35.805Z,2
2023-02-04T05:17:44.097Z,2
2023-02-04T05:18:52.661Z,7.2
2023-02-04T05:20:01.003Z,7.2
2023-02-04T05:21:09.307Z,7.2
2023-02-04T05:22:17.822Z,18.1
2023-02-04T05:23:26.178Z,18.1
2023-02-04T05:24:34.504Z,18.1
2023-02-04T05:25:43.043Z,9.7
2023-02-04T05:26:51.390Z,9.7
2023-02-04T05:27:59.783Z,9.7
2023-02-04T05:29:09.896Z,6.5
2023-02-04T05:30:16.649Z,6.5
2023-02-04T05:31:25.008Z,6.5
2023-02-04T05:32:33.520Z,7.3
2023-02-04T05:33:41.857Z,7.3
2023-02-04T05:34:50.207Z,7.3
2023-02-04T05:35:58.768Z,3.9
2023-02-04T05:37:07.099Z,3.9
2023-02-04T05:38:15.426Z,3.9
2023-02-04T05:39:23.952Z,5.1
2023-02-04T05:40:32.562Z,5.1
2023-02-04T05:41:40.617Z,5.1
2023-02-04T05:42:49.191Z,2.7
2023-02-04T05:43:57.571Z,2.7
2023-02-04T05:45:05.894Z,2.7
2023-02-04T05:46:14.550Z,5
2023-02-04T05:47:22.772Z,5
2023-02-04T05:48:31.120Z,5
2023-02-04T05:49:39.679Z,2.8
2023-02-04T05:50:48.003Z,2.8
2023-02-04T05:51:56.378Z,2.8
2023-02-04T05:53:04.893Z,3.5
2023-02-04T05:54:13.217Z,3.5
2023-02-04T05:55:21.536Z,3.5
2023-02-04T05:56:30.067Z,3.2
2023-02-04T05:57:38.398Z,3.2
2023-02-04T05:58:46.728Z,3.2
2023-02-04T05:59:55.266Z,2.9
2023-02-04T06:01:03.592Z,2.9
2023-02-04T06:02:11.896Z,2.9
2023-02-04T06:03:20.481Z,4.4
2023-02-04T06:04:28.813Z,4.4
2023-02-04T06:05:37.086Z,4.4
2023-02-04T06:06:45.632Z,2.5
2023-02-04T06:07:53.988Z,2.5
2023-02-04T06:09:02.306Z,2.5
2023-02-04T06:10:10.852Z,2.7
2023-02-04T06:11:19.194Z,2.7
2023-02-04T06:12:27.516Z,2.7
2023-02-04T06:13:36.055Z,2.6
2023-02-04T06:14:44.375Z,2.6
2023-02-04T06:15:52.724Z,2.6
2023-02-04T06:17:01.267Z,2.8
2023-02-04T06:18:09.584Z,2.8
2023-02-04T06:19:17.916Z,2.8
2023-02-04T06:20:26.455Z,2.9
2023-02-04T06:21:34.817Z,2.9
2023-02-04T06:22:43.165Z,2.9
2023-02-04T06:23:51.712Z,3.2
2023-02-04T06:25:00.010Z,3.2
2023-02-04T06:26:08.342Z,3.2
2023-02-04T06:27:16.876Z,2.2
2023-02-04T06:28:25.197Z,2.2
2023-02-04T06:29:33.530Z,2.2
2023-02-04T06:30:42.134Z,2
2023-02-04T06:31:50.524Z,2
2023-02-04T06:32:58.722Z,2
2023-02-04T06:34:07.252Z,8.4
2023-02-04T06:35:15.583Z,8.4
2023-02-04T06:36:23.896Z,8.4
2023-02-04T06:37:32.428Z,25.799999
2023-02-04T06:38:40.773Z,25.799999
2023-02-04T06:39:49.116Z,25.799999
2023-02-04T06:40:57.629Z,4.8
2023-02-04T06:42:05.947Z,4.8
2023-02-04T06:43:14.278Z,4.8
2023-02-04T06:44:22.832Z,5.7
2023-02-04T06:45:31.165Z,5.7
2023-02-04T06:46:39.503Z,5.7
2023-02-04T06:47:48.023Z,6.4
2023-02-04T06:48:56.358Z,6.4
2023-02-04T06:50:04.684Z,6.4
2023-02-04T06:51:13.197Z,7.8
2023-02-04T06:52:21.533Z,7.8
2023-02-04T06:53:29.879Z,7.8
2023-02-04T06:54:38.448Z,13.4
2023-02-04T06:55:46.808Z,13.4
2023-02-04T06:56:55.121Z,13.4
2023-02-04T06:58:03.658Z,4.9
2023-02-04T06:59:12.017Z,4.9
2023-02-04T07:00:20.315Z,4.9
2023-02-04T07:01:28.949Z,4.1
2023-02-04T07:02:37.274Z,4.1
2023-02-04T07:03:45.530Z,4.1
2023-02-04T07:04:54.072Z,4.4
2023-02-04T07:06:02.416Z,4.4
2023-02-04T07:07:10.776Z,4.4
2023-02-04T07:08:19.319Z,3.4
2023-02-04T07:09:27.646Z,3.4
2023-02-04T07:10:36.129Z,3.4
2023-02-04T07:11:44.535Z,3
2023-02-04T07:12:52.833Z,3
2023-02-04T07:14:01.166Z,3
2023-02-04T07:15:09.713Z,5
2023-02-04T07:16:18.057Z,5
2023-02-04T07:17:26.344Z,5
2023-02-04T07:18:34.882Z,9.8
2023-02-04T07:19:43.237Z,9.8
2023-02-04T07:20:51.554Z,9.8
2023-02-04T07:22:00.136Z,5
2023-02-04T07:23:08.411Z,5
2023-02-04T07:24:16.726Z,5
2023-02-04T07:25:25.272Z,3
2023-02-04T07:26:33.602Z,3
2023-02-04T07:27:41.974Z,3
2023-02-04T07:28:50.454Z,3.7
2023-02-04T07:29:58.782Z,3.7
2023-02-04T07:31:07.237Z,3.7
2023-02-04T07:32:15.660Z,3.1
2023-02-04T07:33:24.011Z,3.1
2023-02-04T07:34:32.355Z,3.1
2023-02-04T07:35:40.916Z,2.5
2023-02-04T07:36:49.281Z,2.5
2023-02-04T07:37:57.565Z,2.5
2023-02-04T07:39:06.131Z,6.2
2023-02-04T07:40:14.481Z,6.2
2023-02-04T07:41:22.962Z,6.2
2023-02-04T07:42:31.519Z,3.1
2023-02-04T07:43:39.937Z,3.1
2023-02-04T07:44:48.262Z,3.1
2023-02-04T07:45:56.833Z,4.3
2023-02-04T07:47:05.140Z,4.3
2023-02-04T07:48:13.471Z,4.3
2023-02-04T07:49:22.006Z,4.3
2023-02-04T07:50:30.978Z,4.3
2023-02-04T07:51:38.651Z,4.3
2023-02-04T07:52:47.185Z,3.5
2023-02-04T07:53:55.528Z,3.5
2023-02-04T07:55:03.847Z,3.5
2023-02-04T07:56:12.380Z,4.6
2023-02-04T07:57:20.682Z,4.6
2023-02-04T07:58:29.008Z,4.6
2023-02-04T07:59:37.582Z,4.6
2023-02-04T08:00:45.898Z,4.6
2023-02-04T08:01:54.265Z,4.6
2023-02-04T08:03:02.801Z,3
2023-02-04T08:04:11.078Z,3
2023-02-04T08:05:19.402Z,3
2023-02-04T08:06:27.952Z,6.1
2023-02-04T08:07:36.284Z,6.1
2023-02-04T08:08:44.633Z,6.1
2023-02-04T08:09:53.182Z,11.1
2023-02-04T08:11:01.539Z,11.1
2023-02-04T08:12:09.866Z,11.1
2023-02-04T08:13:18.396Z,3
2023-02-04T08:14:26.722Z,3
2023-02-04T08:15:35.084Z,3
2023-02-04T08:16:43.575Z,2.7
2023-02-04T08:17:51.895Z,2.7
2023-02-04T08:19:00.226Z,2.7
2023-02-04T08:20:08.771Z,2.3
2023-02-04T08:21:18.711Z,2.3
2023-02-04T08:22:25.442Z,2.3
2023-02-04T08:23:34.016Z,3
2023-02-04T08:24:42.352Z,3
2023-02-04T08:25:50.697Z,3
2023-02-04T08:26:59.229Z,3.9
2023-02-04T08:28:07.655Z,3.9
2023-02-04T08:29:15.893Z,3.9
2023-02-04T08:30:24.427Z,2.8
2023-02-04T08:31:32.909Z,2.8
2023-02-04T08:32:41.063Z,2.8
2023-02-04T08:33:49.595Z,4.2
2023-02-04T08:34:57.940Z,4.2
2023-02-04T08:36:06.264Z,4.2
2023-02-04T08:37:14.798Z,3.4
2023-02-04T08:38:23.142Z,3.4
2023-02-04T08:39:31.478Z,3.4
2023-02-04T08:40:40.054Z,4.4
2023-02-04T08:41:48.406Z,4.4
2023-02-04T08:42:56.729Z,4.4
2023-02-04T08:44:05.277Z,4.5
2023-02-04T08:45:13.630Z,4.5
2023-02-04T08:46:22.006Z,4.5
2023-02-04T08:47:30.535Z,2.9
2023-02-04T08:48:38.842Z,2.9
2023-02-04T08:49:47.186Z,2.9
2023-02-04T08:50:55.723Z,2.2
2023-02-04T08:52:04.063Z,2.2
2023-02-04T08:53:12.466Z,2.2
2023-02-04T08:54:20.996Z,2.1
2023-02-04T08:55:29.346Z,2.1
2023-02-04T08:56:38.061Z,2.1
2023-02-04T08:57:46.230Z,2.1
2023-02-04T08:58:54.592Z,2.1
2023-02-04T09:00:02.902Z,2.1
2023-02-04T09:01:11.526Z,2.7
2023-02-04T09:02:19.821Z,2.7
2023-02-04T09:03:28.134Z,2.7
2023-02-04T09:04:36.664Z,9.4
2023-02-04T09:05:45.074Z,9.4
2023-02-04T09:06:53.414Z,9.4
2023-02-04T09:08:01.942Z,2.2
2023-02-04T09:09:10.272Z,2.2
2023-02-04T09:10:18.606Z,2.2
2023-02-04T09:11:27.139Z,2
2023-02-04T09:12:35.464Z,2
2023-02-04T09:13:46.675Z,2
2023-02-04T09:14:55.233Z,15.1
2023-02-04T09:16:03.600Z,15.1
2023-02-04T09:17:11.873Z,15.1
2023-02-04T09:18:20.407Z,5.2
2023-02-04T09:19:28.844Z,5.2
2023-02-04T09:20:37.083Z,5.2
2023-02-04T09:21:45.590Z,4
2023-02-04T09:22:53.959Z,4
2023-02-04T09:24:02.266Z,4
2023-02-04T09:25:10.805Z,2.3
2023-02-04T09:26:19.130Z,2.3
2023-02-04T09:27:27.468Z,2.3
2023-02-04T09:28:36.211Z,1.5
2023-02-04T09:29:44.499Z,1.5
2023-02-04T09:30:52.849Z,1.5
2023-02-04T09:32:01.415Z,1.9
2023-02-04T09:33:09.702Z,1.9
2023-02-04T09:34:18.080Z,1.9
2023-02-04T09:35:26.640Z,2.1
2023-02-04T09:36:34.967Z,2.1
2023-02-04T09:37:43.296Z,2.1
2023-02-04T09:38:51.832Z,2
2023-02-04T09:40:00.173Z,2
2023-02-04T09:41:08.503Z,2
2023-02-04T09:42:17.028Z,2
2023-02-04T09:43:25.406Z,2
2023-02-04T09:44:33.760Z,2
2023-02-04T09:45:42.332Z,1.9
2023-02-04T09:46:50.621Z,1.9
2023-02-04T09:47:58.946Z,1.9
2023-02-04T09:49:07.453Z,1.9
2023-02-04T09:50:15.813Z,1.9
2023-02-04T09:51:24.153Z,1.9
2023-02-04T09:52:32.680Z,2.5
2023-02-04T09:53:41.019Z,2.5
2023-02-04T09:54:49.351Z,2.5
2023-02-04T09:55:57.878Z,1
2023-02-04T09:57:06.202Z,1
2023-02-04T09:58:14.536Z,1
2023-02-04T09:59:23.107Z,0.7
2023-02-04T10:00:31.846Z,0.7
2023-02-04T10:01:39.765Z,0.7
2023-02-04T10:02:48.302Z,0.7
2023-02-04T10:03:56.649Z,0.7
2023-02-04T10:05:04.954Z,0.7
2023-02-04T10:06:13.484Z,0.7
2023-02-04T10:07:21.834Z,0.7
2023-02-04T10:08:30.142Z,0.7
2023-02-04T10:09:38.691Z,0.7
2023-02-04T10:10:47.005Z,0.7
2023-02-04T10:11:55.356Z,0.7
2023-02-04T10:13:03.907Z,1.1
2023-02-04T10:14:12.206Z,1.1
2023-02-04T10:15:20.529Z,1.1
2023-02-04T10:16:29.103Z,0.7
2023-02-04T10:17:37.399Z,0.7
2023-02-04T10:18:45.731Z,0.7
2023-02-04T10:19:54.282Z,0.4
2023-02-04T10:21:02.612Z,0.4
2023-02-04T10:22:10.950Z,0.4
2023-02-04T10:23:19.508Z,0.7
2023-02-04T10:24:27.816Z,0.7
2023-02-04T10:25:36.151Z,0.7
2023-02-04T10:26:44.756Z,0.8
2023-02-04T10:27:53.124Z,0.8
2023-02-04T10:29:01.387Z,0.8
2023-02-04T10:30:09.927Z,0.9
2023-02-04T10:31:18.337Z,0.9
2023-02-04T10:32:26.569Z,0.9
2023-02-04T10:33:35.130Z,0.7
2023-02-04T10:34:43.451Z,0.7
2023-02-04T10:35:51.786Z,0.7
2023-02-04T10:37:00.398Z,1
2023-02-04T10:38:08.658Z,1
2023-02-04T10:39:17.005Z,1
2023-02-04T10:40:25.514Z,1.1
2023-02-04T10:41:33.833Z,1.1
2023-02-04T10:42:42.146Z,1.1
2023-02-04T10:43:50.666Z,0.9
2023-02-04T10:44:59.072Z,0.9
2023-02-04T10:46:07.428Z,0.9
2023-02-04T10:47:15.968Z,1.1
2023-02-04T10:48:24.274Z,1.1
2023-02-04T10:49:32.638Z,1.1
2023-02-04T10:50:41.268Z,1.3
2023-02-04T10:51:49.575Z,1.3
2023-02-04T10:52:57.947Z,1.3
2023-02-04T10:54:06.452Z,2.5
2023-02-04T10:55:14.808Z,2.5
2023-02-04T10:56:23.125Z,2.5
2023-02-04T10:57:31.662Z,20.799999
2023-02-04T10:58:40.012Z,20.799999
2023-02-04T10:59:48.334Z,20.799999
2023-02-04T11:00:56.921Z,1.9
2023-02-04T11:02:05.243Z,1.9
2023-02-04T11:03:13.635Z,1.9
2023-02-04T11:04:22.104Z,3
2023-02-04T11:05:30.501Z,3
2023-02-04T11:06:38.823Z,3
2023-02-04T11:07:47.359Z,1.5
2023-02-04T11:08:55.675Z,1.5
2023-02-04T11:10:03.996Z,1.5
2023-02-04T11:11:12.604Z,9.1
2023-02-04T11:12:20.910Z,9.1
2023-02-04T11:13:29.232Z,9.1
2023-02-04T11:14:37.789Z,16
2023-02-04T11:15:47.385Z,16
2023-02-04T11:16:54.472Z,16
2023-02-04T11:18:03.010Z,5.6
2023-02-04T11:19:11.335Z,5.6
2023-02-04T11:20:19.699Z,5.6
2023-02-04T11:21:28.235Z,17.1
2023-02-04T11:22:36.592Z,17.1
2023-02-04T11:23:44.921Z,17.1
2023-02-04T11:24:53.476Z,12.4
2023-02-04T11:26:01.852Z,12.4
2023-02-04T11:27:10.193Z,12.4
2023-02-04T11:28:18.769Z,3.3
2023-02-04T11:29:27.052Z,3.3
2023-02-04T11:30:35.481Z,3.3
2023-02-04T11:31:44.126Z,3.7
2023-02-04T11:32:52.383Z,3.7
2023-02-04T11:34:00.728Z,3.7
2023-02-04T11:35:09.266Z,4.6
2023-02-04T11:36:17.585Z,4.6
2023-02-04T11:37:25.916Z,4.6
2023-02-04T11:38:34.455Z,5.1
2023-02-04T11:39:42.779Z,5.1
2023-02-04T11:40:51.112Z,5.1
2023-02-04T11:41:59.677Z,1.6
2023-02-04T11:43:08.027Z,1.6
2023-02-04T11:44:16.367Z,1.6
2023-02-04T11:45:24.906Z,3.3
2023-02-04T11:46:33.273Z,3.3
2023-02-04T11:47:41.545Z,3.3
2023-02-04T11:48:50.086Z,1.5
2023-02-04T11:49:58.419Z,1.5
2023-02-04T11:51:06.732Z,1.5
2023-02-04T11:52:15.277Z,3.3
2023-02-04T11:53:23.591Z,3.3
2023-02-04T11:54:31.901Z,3.3
2023-02-04T11:55:40.435Z,1.5
2023-02-04T11:56:48.773Z,1.5
2023-02-04T11:57:57.122Z,1.5
2023-02-04T11:59:05.657Z,4
2023-02-04T12:00:14.017Z,4
2023-02-04T12:01:22.284Z,4
2023-02-04T12:02:30.849Z,13.1
2023-02-04T12:03:39.208Z,13.1
2023-02-04T12:04:47.499Z,13.1
2023-02-04T12:05:56.073Z,2.2
2023-02-04T12:07:04.374Z,2.2
2023-02-04T12:08:12.707Z,2.2
2023-02-04T12:09:21.238Z,4.9
2023-02-04T12:10:29.556Z,4.9
2023-02-04T12:11:37.910Z,4.9
2023-02-04T12:12:46.462Z,1.3
2023-02-04T12:13:54.746Z,1.3
2023-02-04T12:15:03.130Z,1.3
2023-02-04T12:16:11.733Z,0.8
2023-02-04T12:17:20.001Z,0.8
2023-02-04T12:18:28.310Z,0.8
2023-02-04T12:19:36.856Z,1.1
2023-02-04T12:20:45.189Z,1.1
2023-02-04T12:21:53.559Z,1.1
2023-02-04T12:23:02.094Z,3
2023-02-04T12:24:10.406Z,3
2023-02-04T12:25:18.744Z,3
2023-02-04T12:26:27.296Z,2.1
2023-02-04T12:27:35.618Z,2.1
2023-02-04T12:28:43.946Z,2.1
2023-02-04T12:29:52.485Z,17.1
2023-02-04T12:31:00.920Z,17.1
2023-02-04T12:32:09.234Z,17.1
2023-02-04T12:33:17.721Z,1.8
2023-02-04T12:34:26.070Z,1.8
2023-02-04T12:35:34.594Z,1.8
2023-02-04T12:36:42.975Z,1.1
2023-02-04T12:37:51.291Z,1.1
2023-02-04T12:38:59.612Z,1.1
2023-02-04T12:40:08.131Z,2.2
2023-02-04T12:41:16.454Z,2.2
2023-02-04T12:42:24.783Z,2.2
2023-02-04T12:43:33.319Z,2.7
2023-02-04T12:44:41.645Z,2.7
2023-02-04T12:45:50.149Z,2.7
2023-02-04T12:46:58.583Z,7.6
2023-02-04T12:48:06.894Z,7.6
2023-02-04T12:49:15.203Z,7.6
2023-02-04T12:50:23.758Z,9.3
2023-02-04T12:51:32.064Z,9.3
2023-02-04T12:52:40.384Z,9.3
2023-02-04T12:53:48.916Z,2.4
2023-02-04T12:54:57.249Z,2.4
2023-02-04T12:56:05.565Z,2.4
2023-02-04T12:57:14.099Z,13.9
2023-02-04T12:58:22.430Z,13.9
2023-02-04T12:59:30.750Z,13.9
2023-02-04T13:00:39.340Z,6.4
2023-02-04T13:01:47.627Z,6.4
2023-02-04T13:02:55.956Z,6.4
2023-02-04T13:04:04.437Z,11.6
2023-02-04T13:05:12.767Z,11.6
2023-02-04T13:06:21.102Z,11.6
2023-02-04T13:07:29.668Z,9.6
2023-02-04T13:08:37.988Z,9.6
2023-02-04T13:09:46.319Z,9.6
2023-02-04T13:10:54.864Z,13.7
2023-02-04T13:12:03.192Z,13.7
2023-02-04T13:13:11.536Z,13.7
2023-02-04T13:14:20.100Z,17.700001
2023-02-04T13:15:28.400Z,17.700001
2023-02-04T13:16:36.787Z,17.700001
2023-02-04T13:17:45.296Z,6
2023-02-04T13:18:53.639Z,6
2023-02-04T13:20:01.986Z,6
2023-02-04T13:21:10.508Z,2.6
2023-02-04T13:22:18.821Z,2.6
2023-02-04T13:23:27.154Z,2.6
2023-02-04T13:24:35.688Z,8.1
2023-02-04T13:25:44.004Z,8.1
2023-02-04T13:26:52.349Z,8.1
2023-02-04T13:28:00.986Z,7.7
2023-02-04T13:29:09.233Z,7.7
2023-02-04T13:30:17.582Z,7.7
2023-02-04T13:31:26.156Z,1
2023-02-04T13:32:34.438Z,1
2023-02-04T13:33:42.751Z,1
2023-02-04T13:34:51.317Z,1.4
2023-02-04T13:35:59.622Z,1.4
2023-02-04T13:37:07.968Z,1.4
2023-02-04T13:38:16.512Z,5
2023-02-04T13:39:24.864Z,5
2023-02-04T13:40:33.181Z,5
2023-02-04T13:41:41.739Z,3.5
2023-02-04T13:42:50.097Z,3.5
2023-02-04T13:43:58.412Z,3.5
2023-02-04T13:45:06.957Z,10
2023-02-04T13:46:15.307Z,10
2023-02-04T13:47:23.624Z,10
2023-02-04T13:48:32.177Z,7.3
2023-02-04T13:49:40.510Z,7.3
2023-02-04T13:50:48.891Z,7.3
2023-02-04T13:51:57.405Z,3
2023-02-04T13:53:05.731Z,3
2023-02-04T13:54:14.062Z,3
2023-02-04T13:55:22.592Z,8
2023-02-04T13:56:30.929Z,8
2023-02-04T13:57:39.261Z,8
2023-02-04T13:58:47.803Z,4.1
2023-02-04T13:59:56.128Z,4.1
2023-02-04T14:01:04.489Z,4.1
2023-02-04T14:02:13.089Z,2.2
2023-02-04T14:03:21.358Z,2.2
2023-02-04T14:04:29.680Z,2.2
2023-02-04T14:05:38.218Z,1.2
2023-02-04T14:06:46.616Z,1.2
2023-02-04T14:07:54.927Z,1.2
2023-02-04T14:09:03.472Z,1.4
2023-02-04T14:10:11.790Z,1.4
2023-02-04T14:11:20.119Z,1.4
2023-02-04T14:12:28.655Z,8.1
2023-02-04T14:13:36.965Z,8.1
2023-02-04T14:14:45.272Z,8.1
2023-02-04T14:15:53.806Z,13.4
2023-02-04T14:17:02.135Z,13.4
2023-02-04T14:18:10.455Z,13.4
2023-02-04T14:19:18.981Z,5.3
2023-02-04T14:20:27.339Z,5.3
2023-02-04T14:21:35.672Z,5.3
2023-02-04T14:22:44.234Z,25.5
2023-02-04T14:23:52.578Z,25.5
2023-02-04T14:25:00.897Z,25.5
2023-02-04T14:26:09.431Z,31.5
2023-02-04T14:27:17.826Z,31.5
2023-02-04T14:28:26.246Z,31.5
2023-02-04T14:29:34.713Z,12.6
2023-02-04T14:30:43.069Z,12.6
2023-02-04T15:04:23.125Z,0
2023-02-04T15:05:31.406Z,0
2023-02-04T15:06:39.724Z,0
2023-02-04T15:07:48.290Z,1.5
2023-02-04T15:08:56.614Z,1.5
2023-02-04T15:10:05.004Z,1.5
2023-02-04T15:11:13.474Z,2.5
2023-02-04T15:12:21.805Z,2.5
2023-02-04T15:13:30.134Z,2.5
2023-02-04T15:14:38.664Z,3.3
2023-02-04T15:15:46.990Z,3.3
2023-02-04T15:16:55.343Z,3.3
2023-02-04T15:18:03.886Z,5.8
2023-02-04T15:19:12.221Z,5.8
2023-02-04T15:20:20.572Z,5.8
2023-02-04T15:21:29.060Z,5.2
2023-02-04T15:22:37.401Z,5.2
2023-02-04T15:23:45.717Z,5.2
2023-02-04T15:24:54.250Z,10.2
2023-02-04T15:26:02.582Z,10.2
2023-02-04T15:27:10.917Z,10.2
2023-02-04T15:28:19.521Z,8.2
2023-02-04T15:29:27.760Z,8.2
2023-02-04T15:30:36.392Z,8.2
2023-02-04T15:31:44.819Z,13.7
2023-02-04T15:32:53.020Z,13.7
2023-02-04T15:34:01.350Z,13.7
2023-02-04T15:35:09.904Z,15.2
2023-02-04T15:36:18.374Z,15.2
2023-02-04T15:37:26.707Z,15.2
2023-02-04T15:38:35.279Z,24
2023-02-04T15:39:43.673Z,24
2023-02-04T15:40:51.959Z,24
2023-02-04T15:42:00.521Z,8.3
2023-02-04T15:43:08.881Z,8.3
2023-02-04T15:44:17.217Z,8.3
2023-02-04T15:45:25.782Z,16
2023-02-04T15:46:34.190Z,16
2023-02-04T15:47:42.437Z,16
2023-02-04T15:48:50.961Z,30.9
2023-02-04T15:49:59.289Z,30.9
2023-02-04T15:51:07.606Z,30.9
2023-02-04T15:52:23.948Z,7.4
2023-02-04T15:53:24.460Z,7.4
2023-02-04T15:54:32.802Z,7.4
2023-02-04T15:55:41.352Z,7.1
2023-02-04T15:56:49.762Z,7.1
2023-02-04T15:57:58.011Z,7.1
2023-02-04T15:59:06.528Z,4.5
2023-02-04T16:00:14.872Z,4.5
2023-02-04T16:01:23.263Z,4.5
2023-02-04T16:02:31.761Z,2.1
2023-02-04T16:03:40.044Z,2.1
2023-02-04T16:04:48.372Z,2.1
2023-02-04T16:05:56.906Z,2
2023-02-04T16:07:05.210Z,2
2023-02-04T16:08:13.598Z,2
2023-02-04T16:09:22.098Z,2.5
2023-02-04T16:10:31.009Z,2.5
2023-02-04T16:11:38.997Z,2.5
2023-02-04T16:12:47.652Z,2.5
2023-02-04T16:13:55.990Z,2.5
2023-02-04T16:15:04.327Z,2.5
2023-02-04T16:16:12.875Z,3.2
2023-02-04T16:17:21.178Z,3.2
2023-02-04T16:18:29.525Z,3.2